createdAt,value
2023-01-22T00:01:20.106Z,33.40
2023-01-22T00:03:49.430Z,33.50
2023-01-22T00:06:17.482Z,33.70
2023-01-22T00:08:46.745Z,33.00
2023-01-22T00:11:16.853Z,31.60
2023-01-22T00:13:45.134Z,32.60
2023-01-22T00:16:17.002Z,31.70
2023-01-22T00:18:44.646Z,31.60
2023-01-22T00:21:13.548Z,34.70
2023-01-22T00:23:41.215Z,31.00
2023-01-22T00:26:15.901Z,30.40
2023-01-22T00:28:47.689Z,31.40
2023-01-22T00:31:17.061Z,35.00
2023-01-22T00:33:47.437Z,35.10
2023-01-22T00:36:19.595Z,31.90
2023-01-22T00:38:48.335Z,31.40
2023-01-22T00:41:18.592Z,32.30
2023-01-22T00:43:51.753Z,34.80
2023-01-22T00:46:20.833Z,34.90
2023-01-22T00:48:51.666Z,35.80
2023-01-22T00:51:22.160Z,34.50
2023-01-22T00:53:49.956Z,33.70
2023-01-22T00:56:17.697Z,32.80
2023-01-22T00:58:45.502Z,35.30
2023-01-22T01:01:15.599Z,33.90
2023-01-22T01:03:44.212Z,34.50
2023-01-22T01:06:21.387Z,35.00
2023-01-22T01:08:50.242Z,34.80
2023-01-22T01:11:22.420Z,35.90
2023-01-22T01:13:52.271Z,34.00
2023-01-22T01:16:29.154Z,35.10
2023-01-22T01:19:02.827Z,35.80
2023-01-22T01:21:31.127Z,35.60
2023-01-22T01:23:59.961Z,38.20
2023-01-22T01:26:28.157Z,38.50
2023-01-22T01:28:56.175Z,38.80
2023-01-22T01:31:26.352Z,34.20
2023-01-22T01:33:54.227Z,34.50
2023-01-22T01:36:47.300Z,36.20
2023-01-22T01:39:14.970Z,35.60
2023-01-22T01:41:42.958Z,35.90
2023-01-22T01:44:14.615Z,33.50
2023-01-22T01:47:01.290Z,37.30
2023-01-22T01:49:38.382Z,35.70
2023-01-22T01:52:12.958Z,35.50
2023-01-22T01:54:46.994Z,34.90
2023-01-22T01:57:35.209Z,35.20
2023-01-22T02:00:10.646Z,33.30
2023-01-22T02:02:38.527Z,34.80
2023-01-22T02:05:09.249Z,34.50
2023-01-22T02:07:37.812Z,34.40
2023-01-22T02:10:06.403Z,31.80
2023-01-22T02:12:34.580Z,31.80
2023-01-22T02:15:05.399Z,34.20
2023-01-22T02:17:33.119Z,32.10
2023-01-22T02:20:00.721Z,35.40
2023-01-22T02:22:33.371Z,33.80
2023-01-22T02:25:01.933Z,34.60
2023-01-22T02:27:29.703Z,32.80
2023-01-22T02:29:57.401Z,33.00
2023-01-22T02:32:25.292Z,30.90
2023-01-22T02:34:53.323Z,33.00
2023-01-22T02:37:20.950Z,31.50
2023-01-22T02:39:48.641Z,30.80
2023-01-22T02:42:16.436Z,31.50
2023-01-22T02:44:44.252Z,30.50
2023-01-22T02:47:11.991Z,29.00
2023-01-22T02:49:39.681Z,27.50
2023-01-22T02:52:07.316Z,26.40
2023-01-22T02:54:35.027Z,28.90
2023-01-22T02:57:02.909Z,27.50
2023-01-22T02:59:31.452Z,30.20
2023-01-22T03:01:59.123Z,29.40
2023-01-22T03:04:27.293Z,30.30
2023-01-22T03:06:55.020Z,28.40
2023-01-22T03:09:22.737Z,28.50
2023-01-22T03:11:50.834Z,27.80
2023-01-22T03:14:37.514Z,24.80
2023-01-22T03:17:26.410Z,26.30
2023-01-22T03:20:12.749Z,24.10
2023-01-22T03:22:40.364Z,21.70
2023-01-22T03:25:08.463Z,21.70
2023-01-22T03:27:36.851Z,22.10
2023-01-22T03:30:05.125Z,21.70
2023-01-22T03:32:32.885Z,21.50
2023-01-22T03:35:01.820Z,22.30
2023-01-22T03:37:29.561Z,21.80
2023-01-22T03:39:57.973Z,22.20
2023-01-22T03:42:25.592Z,21.50
2023-01-22T03:44:55.374Z,18.80
2023-01-22T03:47:23.171Z,18.20
2023-01-22T03:49:50.945Z,18.40
2023-01-22T03:52:18.931Z,13.50
2023-01-22T03:54:46.569Z,14.60
2023-01-22T03:57:14.278Z,15.70
2023-01-22T03:59:41.839Z,15.60
2023-01-22T04:02:09.568Z,14.90
2023-01-22T04:04:37.273Z,15.80
2023-01-22T04:07:05.296Z,14.40
2023-01-22T04:09:32.914Z,11.10
2023-01-22T04:12:00.608Z,11.00
2023-01-22T04:14:28.246Z,9.30
2023-01-22T04:16:55.976Z,8.80
2023-01-22T04:19:23.825Z,7.30
2023-01-22T04:21:51.433Z,6.30
2023-01-22T04:24:19.161Z,7.30
2023-01-22T04:26:46.762Z,7.70
2023-01-22T04:29:14.477Z,7.20
2023-01-22T04:31:42.158Z,7.20
2023-01-22T04:34:10.174Z,6.40
2023-01-22T04:36:38.010Z,6.00
2023-01-22T04:39:05.796Z,5.80
2023-01-22T04:41:33.661Z,5.30
2023-01-22T04:44:01.311Z,4.30
2023-01-22T04:46:29.070Z,5.80
2023-01-22T04:48:56.745Z,4.30
2023-01-22T04:51:24.611Z,5.40
2023-01-22T04:53:52.327Z,5.60
2023-01-22T04:56:20.023Z,6.80
2023-01-22T04:58:47.772Z,7.00
2023-01-22T05:01:15.568Z,5.80
2023-01-22T05:03:43.369Z,5.30
2023-01-22T05:06:11.006Z,5.50
2023-01-22T05:08:38.677Z,6.80
2023-01-22T05:11:06.477Z,6.40
2023-01-22T05:13:34.241Z,6.70
2023-01-22T05:16:02.246Z,7.20
2023-01-22T05:18:30.093Z,6.00
2023-01-22T05:20:57.849Z,7.80
2023-01-22T05:23:25.593Z,6.90
2023-01-22T05:25:53.843Z,7.30
2023-01-22T05:28:21.746Z,7.70
2023-01-22T05:30:50.086Z,6.90
2023-01-22T05:33:17.873Z,7.00
2023-01-22T05:35:45.588Z,7.40
2023-01-22T05:38:13.291Z,5.80
2023-01-22T05:40:40.972Z,6.20
2023-01-22T05:43:08.690Z,6.20
2023-01-22T05:45:36.450Z,5.60
2023-01-22T05:48:04.242Z,6.10
2023-01-22T05:50:32.088Z,7.00
2023-01-22T05:53:00.020Z,6.50
2023-01-22T05:55:27.849Z,5.70
2023-01-22T05:57:55.627Z,5.50
2023-01-22T06:00:23.528Z,5.30
2023-01-22T06:03:01.157Z,2.80
2023-01-22T06:05:29.175Z,4.70
2023-01-22T06:07:56.844Z,5.90
2023-01-22T06:10:24.601Z,6.90
2023-01-22T06:12:52.340Z,5.80
2023-01-22T06:15:20.080Z,5.10
2023-01-22T06:17:47.784Z,6.00
2023-01-22T06:20:15.734Z,5.20
2023-01-22T06:22:43.540Z,5.10
2023-01-22T06:25:11.204Z,5.90
2023-01-22T06:27:38.899Z,5.80
2023-01-22T06:30:07.719Z,4.00
2023-01-22T06:32:35.383Z,5.60
2023-01-22T06:35:03.261Z,7.00
2023-01-22T06:37:30.925Z,5.00
2023-01-22T06:39:58.592Z,5.30
2023-01-22T06:42:26.359Z,6.00
2023-01-22T06:44:54.772Z,6.30
2023-01-22T06:47:22.463Z,7.40
2023-01-22T06:49:52.493Z,6.40
2023-01-22T06:52:20.372Z,5.60
2023-01-22T06:54:48.081Z,5.40
2023-01-22T06:57:16.141Z,5.40
2023-01-22T06:59:43.793Z,6.00
2023-01-22T07:02:19.094Z,7.10
2023-01-22T07:04:47.220Z,6.50
2023-01-22T07:07:15.335Z,7.10
2023-01-22T07:09:43.245Z,6.90
2023-01-22T07:12:10.932Z,5.90
2023-01-22T07:14:38.672Z,7.10
2023-01-22T07:17:06.622Z,7.20
2023-01-22T07:19:34.370Z,6.70
2023-01-22T07:22:02.108Z,7.30
2023-01-22T07:24:29.802Z,5.60
2023-01-22T07:26:57.488Z,6.10
2023-01-22T07:29:25.128Z,6.50
2023-01-22T07:31:52.991Z,6.30
2023-01-22T07:34:20.996Z,5.80
2023-01-22T07:36:49.033Z,5.10
2023-01-22T07:39:17.023Z,5.70
2023-01-22T07:41:44.639Z,6.50
2023-01-22T07:44:12.874Z,6.10
2023-01-22T07:46:40.742Z,7.30
2023-01-22T07:49:08.437Z,7.90
2023-01-22T07:51:36.259Z,8.60
2023-01-22T07:54:04.113Z,12.50
2023-01-22T07:56:31.796Z,8.80
2023-01-22T07:58:59.801Z,19.80
2023-01-22T08:01:27.607Z,41.40
2023-01-22T08:03:57.284Z,51.90
2023-01-22T08:06:24.890Z,53.20
2023-01-22T08:08:55.749Z,27.80
2023-01-22T08:11:23.370Z,62.50
2023-01-22T08:13:51.040Z,26.30
2023-01-22T08:16:18.956Z,21.80
2023-01-22T08:18:46.932Z,18.10
2023-01-22T08:21:14.739Z,15.20
2023-01-22T08:23:45.739Z,11.70
2023-01-22T08:26:14.456Z,11.50
2023-01-22T08:28:42.153Z,11.80
2023-01-22T08:31:19.366Z,10.70
2023-01-22T08:33:50.647Z,11.40
2023-01-22T08:36:18.312Z,11.40
2023-01-22T08:38:46.156Z,9.60
2023-01-22T08:41:13.846Z,9.30
2023-01-22T08:43:41.769Z,12.60
2023-01-22T08:46:09.852Z,14.00
2023-01-22T08:48:37.687Z,15.60
2023-01-22T08:51:05.700Z,15.30
2023-01-22T08:53:33.441Z,16.10
2023-01-22T08:56:01.133Z,15.90
2023-01-22T08:58:28.861Z,13.90
2023-01-22T09:00:56.879Z,13.50
2023-01-22T09:03:25.137Z,13.90
2023-01-22T09:05:52.940Z,16.00
2023-01-22T09:08:21.758Z,11.20
2023-01-22T09:10:49.491Z,12.70
2023-01-22T09:13:18.058Z,13.50
2023-01-22T09:15:45.714Z,15.50
2023-01-22T09:18:13.437Z,13.80
2023-01-22T09:20:41.342Z,13.70
2023-01-22T09:23:09.117Z,12.70
2023-01-22T09:25:36.863Z,11.90
2023-01-22T09:28:08.667Z,14.60
2023-01-22T09:30:39.413Z,12.70
2023-01-22T09:33:07.221Z,11.10
2023-01-22T09:35:34.936Z,6.50
2023-01-22T09:38:03.480Z,8.50
2023-01-22T09:40:44.320Z,11.90
2023-01-22T09:43:30.133Z,10.80
2023-01-22T09:46:03.160Z,11.20
2023-01-22T09:48:45.562Z,8.60
2023-01-22T09:51:17.173Z,8.90
2023-01-22T09:53:58.086Z,10.40
2023-01-22T09:56:35.255Z,10.00
2023-01-22T09:59:07.492Z,10.10
2023-01-22T10:01:36.501Z,7.80
2023-01-22T10:04:20.401Z,10.00
2023-01-22T10:06:52.163Z,10.20
2023-01-22T10:09:20.755Z,7.80
2023-01-22T10:11:54.218Z,8.80
2023-01-22T10:14:27.838Z,9.30
2023-01-22T10:17:01.587Z,7.00
2023-01-22T10:19:42.462Z,10.70
2023-01-22T10:22:24.997Z,9.30
2023-01-22T10:24:53.873Z,9.40
2023-01-22T10:27:33.274Z,11.20
2023-01-22T10:30:23.007Z,7.50
2023-01-22T10:33:07.337Z,9.40
2023-01-22T10:35:49.691Z,10.60
2023-01-22T10:38:31.787Z,9.10
2023-01-22T10:41:04.325Z,10.30
2023-01-22T10:43:37.157Z,9.50
2023-01-22T10:46:26.397Z,10.70
2023-01-22T10:49:05.994Z,8.30
2023-01-22T10:51:45.653Z,6.90
2023-01-22T10:54:21.115Z,10.70
2023-01-22T10:56:50.309Z,10.20
2023-01-22T10:59:26.279Z,9.10
2023-01-22T11:02:18.317Z,8.90
2023-01-22T11:04:46.171Z,9.50
2023-01-22T11:07:26.332Z,8.20
2023-01-22T11:10:16.122Z,9.30
2023-01-22T11:12:51.187Z,9.90
2023-01-22T11:15:34.050Z,8.90
2023-01-22T11:18:04.588Z,7.70
2023-01-22T11:20:51.728Z,9.70
2023-01-22T11:23:37.077Z,8.70
2023-01-22T11:26:31.331Z,9.20
2023-01-22T11:29:25.077Z,8.80
2023-01-22T11:32:11.554Z,8.70
2023-01-22T11:35:15.314Z,9.10
2023-01-22T11:38:10.419Z,8.90
2023-01-22T11:41:22.478Z,11.30
2023-01-22T11:44:23.961Z,10.10
2023-01-22T11:47:36.342Z,11.80
2023-01-22T11:50:15.916Z,7.70
2023-01-22T11:52:57.568Z,9.50
2023-01-22T11:56:02.980Z,10.90
2023-01-22T11:58:52.535Z,8.30
2023-01-22T12:01:37.008Z,9.20
2023-01-22T12:04:32.597Z,8.90
2023-01-22T12:07:23.390Z,8.80
2023-01-22T12:10:15.511Z,9.60
2023-01-22T12:13:18.156Z,10.20
2023-01-22T12:16:13.622Z,9.20
2023-01-22T12:19:05.288Z,8.50
2023-01-22T12:21:48.297Z,4.30
2023-01-22T12:24:37.200Z,8.60
2023-01-22T12:27:20.231Z,7.60
2023-01-22T12:30:12.304Z,5.30
2023-01-22T12:32:47.698Z,8.90
2023-01-22T12:35:22.360Z,8.30
2023-01-22T12:38:06.293Z,9.80
2023-01-22T12:41:17.133Z,9.10
2023-01-22T12:44:02.839Z,10.10
2023-01-22T12:47:01.490Z,10.30
2023-01-22T12:49:29.315Z,10.00
2023-01-22T12:52:00.559Z,8.10
2023-01-22T12:54:36.323Z,9.00
2023-01-22T12:57:14.304Z,9.60
2023-01-22T12:59:47.163Z,10.50
2023-01-22T13:02:35.755Z,10.20
2023-01-22T13:05:26.459Z,9.40
2023-01-22T13:08:22.588Z,9.90
2023-01-22T13:11:03.588Z,11.60
2023-01-22T13:13:48.266Z,11.90
2023-01-22T13:16:16.066Z,10.80
2023-01-22T13:18:52.053Z,11.60
2023-01-22T13:21:33.003Z,12.00
2023-01-22T13:24:05.344Z,12.40
2023-01-22T13:26:36.134Z,12.60
2023-01-22T13:29:26.714Z,12.40
2023-01-22T13:31:59.152Z,11.20
2023-01-22T13:34:28.630Z,12.30
2023-01-22T13:36:57.560Z,12.10
2023-01-22T13:39:30.292Z,13.10
2023-01-22T13:42:05.470Z,11.90
2023-01-22T13:44:39.049Z,11.90
2023-01-22T13:47:07.217Z,10.90
2023-01-22T13:49:42.961Z,12.20
2023-01-22T13:52:18.195Z,13.80
2023-01-22T13:55:16.754Z,14.00
2023-01-22T13:57:51.695Z,15.50
2023-01-22T14:00:34.311Z,16.10
2023-01-22T14:03:18.709Z,16.50
2023-01-22T14:05:46.366Z,15.10
2023-01-22T14:08:14.768Z,16.50
2023-01-22T14:10:43.250Z,15.80
2023-01-22T14:13:15.646Z,15.20
2023-01-22T14:15:56.760Z,16.00
2023-01-22T14:18:29.587Z,16.40
2023-01-22T14:20:57.638Z,15.30
2023-01-22T14:23:25.821Z,16.90
2023-01-22T14:25:56.209Z,16.10
2023-01-22T14:28:25.195Z,15.90
2023-01-22T14:30:53.351Z,14.70
2023-01-22T14:33:31.379Z,16.90
2023-01-22T14:35:59.749Z,16.20
2023-01-22T14:38:28.632Z,15.50
2023-01-22T14:40:57.128Z,17.50
2023-01-22T14:43:25.089Z,16.50
2023-01-22T14:45:52.853Z,18.50
2023-01-22T14:48:21.709Z,18.50
2023-01-22T14:50:50.278Z,18.00
2023-01-22T14:53:19.558Z,15.30
2023-01-22T14:55:47.236Z,15.20
2023-01-22T14:58:16.307Z,15.90
2023-01-22T15:00:44.577Z,17.00
2023-01-22T15:03:12.383Z,15.50
2023-01-22T15:05:40.647Z,14.90
2023-01-22T15:08:08.454Z,16.70
2023-01-22T15:10:36.518Z,18.00
2023-01-22T15:13:04.204Z,17.10
2023-01-22T15:15:32.608Z,20.30
2023-01-22T15:18:00.279Z,20.10
2023-01-22T15:20:30.124Z,16.80
2023-01-22T15:22:57.938Z,17.20
2023-01-22T15:25:27.404Z,13.60
2023-01-22T15:27:55.124Z,15.50
2023-01-22T15:30:22.923Z,16.30
2023-01-22T15:32:50.759Z,14.80
2023-01-22T15:35:18.572Z,14.20
2023-01-22T15:37:47.628Z,13.00
2023-01-22T15:40:15.659Z,13.00
2023-01-22T15:42:45.631Z,12.40
2023-01-22T15:45:13.341Z,12.90
2023-01-22T15:47:41.014Z,13.20
2023-01-22T15:50:10.097Z,19.00
2023-01-22T15:52:37.768Z,21.90
2023-01-22T15:55:06.747Z,20.50
2023-01-22T15:57:34.685Z,18.80
2023-01-22T16:00:03.957Z,19.80
2023-01-22T16:02:31.747Z,16.10
2023-01-22T16:04:59.628Z,18.90
2023-01-22T16:07:27.276Z,13.40
2023-01-22T16:09:55.155Z,15.30
2023-01-22T16:12:22.813Z,14.30
2023-01-22T16:14:50.622Z,14.30
2023-01-22T16:17:18.345Z,13.90
2023-01-22T16:19:46.020Z,13.60
2023-01-22T16:22:13.906Z,13.60
2023-01-22T16:24:41.707Z,14.70
2023-01-22T16:27:09.392Z,11.10
2023-01-22T16:29:37.205Z,15.60
2023-01-22T16:32:05.859Z,13.90
2023-01-22T16:34:33.950Z,13.10
2023-01-22T16:37:01.924Z,14.50
2023-01-22T16:39:29.779Z,7.90
2023-01-22T16:41:57.422Z,13.50
2023-01-22T16:44:27.079Z,13.30
2023-01-22T16:46:57.751Z,11.50
2023-01-22T16:49:33.294Z,12.80
2023-01-22T16:52:20.675Z,13.00
2023-01-22T16:54:50.038Z,13.80
2023-01-22T16:57:20.403Z,12.70
2023-01-22T16:59:48.206Z,11.80
2023-01-22T17:02:18.947Z,12.20
2023-01-22T17:04:47.362Z,12.40
2023-01-22T17:07:31.602Z,9.80
2023-01-22T17:10:00.453Z,12.40
2023-01-22T17:12:28.285Z,7.70
2023-01-22T17:14:56.041Z,6.50
2023-01-22T17:17:23.881Z,12.40
2023-01-22T17:19:51.623Z,14.00
2023-01-22T17:22:19.707Z,12.70
2023-01-22T17:24:47.763Z,12.20
2023-01-22T17:27:18.470Z,12.20
2023-01-22T17:29:48.954Z,13.20
2023-01-22T17:32:16.840Z,13.10
2023-01-22T17:34:44.631Z,9.90
2023-01-22T17:37:13.662Z,12.90
2023-01-22T17:39:43.109Z,12.10
2023-01-22T17:42:11.035Z,12.80
2023-01-22T17:44:40.327Z,14.00
2023-01-22T17:47:08.385Z,13.10
2023-01-22T17:49:37.004Z,12.20
2023-01-22T17:52:05.606Z,13.60
2023-01-22T17:54:33.508Z,13.80
2023-01-22T17:57:01.472Z,13.20
2023-01-22T17:59:29.299Z,16.90
2023-01-22T18:01:58.384Z,20.00
2023-01-22T18:04:26.800Z,21.70
2023-01-22T18:06:54.846Z,19.30
2023-01-22T18:09:23.035Z,14.20
2023-01-22T18:11:50.783Z,14.00
2023-01-22T18:14:22.579Z,15.40
2023-01-22T18:16:50.556Z,15.80
2023-01-22T18:19:18.890Z,15.30
2023-01-22T18:21:46.748Z,15.10
2023-01-22T18:24:15.070Z,13.30
2023-01-22T18:26:45.262Z,13.60
2023-01-22T18:29:13.144Z,14.60
2023-01-22T18:31:42.204Z,13.30
2023-01-22T18:34:14.747Z,13.00
2023-01-22T18:36:44.061Z,12.00
2023-01-22T18:39:18.112Z,14.70
2023-01-22T18:41:48.593Z,12.50
2023-01-22T18:44:17.545Z,12.90
2023-01-22T18:46:48.221Z,12.20
2023-01-22T18:49:19.001Z,12.60
2023-01-22T18:51:47.201Z,13.10
2023-01-22T18:54:16.824Z,12.20
2023-01-22T18:56:46.002Z,14.10
2023-01-22T18:59:15.230Z,13.00
2023-01-22T19:01:50.068Z,11.90
2023-01-22T19:04:22.023Z,13.10
2023-01-22T19:06:53.647Z,11.40
2023-01-22T19:09:21.619Z,11.90
2023-01-22T19:11:52.333Z,13.80
2023-01-22T19:14:21.685Z,13.60
2023-01-22T19:16:53.397Z,14.30
2023-01-22T19:19:22.866Z,13.90
2023-01-22T19:21:54.753Z,13.90
2023-01-22T19:24:26.745Z,13.40
2023-01-22T19:26:57.030Z,14.10
2023-01-22T19:29:26.355Z,12.80
2023-01-22T19:31:56.989Z,12.20
2023-01-22T19:34:27.385Z,12.30
2023-01-22T19:37:01.251Z,13.00
2023-01-22T19:39:30.205Z,13.40
2023-01-22T19:42:02.061Z,14.00
2023-01-22T19:44:30.761Z,13.90
2023-01-22T19:47:00.824Z,13.50
2023-01-22T19:49:29.755Z,12.60
2023-01-22T19:51:58.695Z,12.90
2023-01-22T19:54:27.038Z,12.50
2023-01-22T19:56:54.793Z,13.40
2023-01-22T19:59:24.429Z,15.00
2023-01-22T20:01:52.773Z,14.60
2023-01-22T20:04:29.628Z,14.60
2023-01-22T20:07:07.249Z,13.60
2023-01-22T20:09:37.476Z,14.10
2023-01-22T20:12:06.529Z,13.90
2023-01-22T20:14:38.984Z,16.20
2023-01-22T20:17:06.946Z,13.50
2023-01-22T20:19:38.109Z,15.20
2023-01-22T20:22:07.186Z,15.20
2023-01-22T20:24:34.997Z,14.50
2023-01-22T20:27:03.159Z,13.80
2023-01-22T20:29:30.941Z,14.70
2023-01-22T20:32:00.866Z,13.80
2023-01-22T20:34:28.849Z,14.00
2023-01-22T20:36:56.617Z,16.20
2023-01-22T20:39:24.435Z,15.90
2023-01-22T20:41:54.508Z,16.30
2023-01-22T20:44:23.191Z,15.10
2023-01-22T20:46:51.579Z,14.10
2023-01-22T20:49:19.372Z,14.60
2023-01-22T20:51:47.425Z,14.50
2023-01-22T20:54:15.198Z,15.60
2023-01-22T20:56:42.920Z,14.20
2023-01-22T20:59:15.335Z,15.80
2023-01-22T21:01:43.707Z,15.40
2023-01-22T21:04:13.309Z,16.80
2023-01-22T21:06:41.612Z,14.00
2023-01-22T21:09:10.470Z,14.60
2023-01-22T21:11:40.981Z,13.80
2023-01-22T21:14:16.826Z,13.30
2023-01-22T21:16:44.833Z,14.10
2023-01-22T21:19:23.877Z,14.20
2023-01-22T21:21:52.838Z,15.40
2023-01-22T21:24:20.589Z,15.40
2023-01-22T21:26:48.357Z,15.90
2023-01-22T21:29:21.127Z,15.00
2023-01-22T21:31:52.696Z,14.90
2023-01-22T21:34:23.777Z,15.60
2023-01-22T21:36:54.253Z,15.70
2023-01-22T21:39:30.442Z,16.60
2023-01-22T21:42:17.308Z,17.20
2023-01-22T21:45:03.760Z,16.10
2023-01-22T21:47:31.525Z,17.30
2023-01-22T21:49:59.349Z,18.80
2023-01-22T21:52:27.322Z,15.40
2023-01-22T21:54:55.099Z,16.60
2023-01-22T21:57:22.870Z,17.00
2023-01-22T21:59:50.712Z,18.20
2023-01-22T22:02:19.616Z,17.50
2023-01-22T22:04:47.608Z,17.70
2023-01-22T22:07:15.422Z,18.50
2023-01-22T22:09:44.297Z,16.90
2023-01-22T22:12:12.044Z,16.50
2023-01-22T22:14:39.710Z,16.40
2023-01-22T22:17:07.804Z,15.80
2023-01-22T22:19:35.643Z,17.70
2023-01-22T22:22:03.461Z,17.60
2023-01-22T22:24:31.238Z,17.60
2023-01-22T22:26:59.010Z,17.90
2023-01-22T22:29:26.785Z,16.50
2023-01-22T22:31:55.471Z,16.30
2023-01-22T22:34:23.185Z,17.10
2023-01-22T22:36:50.800Z,17.30
2023-01-22T22:39:18.451Z,18.00
2023-01-22T22:41:46.198Z,17.10
2023-01-22T22:44:15.065Z,17.30
2023-01-22T22:46:42.866Z,16.20
2023-01-22T22:49:13.275Z,15.60
2023-01-22T22:51:43.807Z,18.50
2023-01-22T22:54:18.291Z,17.60
2023-01-22T22:56:48.362Z,16.50
2023-01-22T22:59:18.507Z,16.90
2023-01-22T23:01:50.294Z,16.60
2023-01-22T23:04:18.126Z,16.30
2023-01-22T23:06:46.930Z,16.00
2023-01-22T23:09:19.822Z,18.80
2023-01-22T23:11:51.704Z,18.80
2023-01-22T23:14:19.485Z,17.30
2023-01-22T23:16:47.880Z,16.20
2023-01-22T23:19:23.651Z,16.60
2023-01-22T23:21:58.807Z,14.50
2023-01-22T23:24:27.829Z,15.10
2023-01-22T23:26:57.081Z,15.10
2023-01-22T23:29:26.844Z,16.20
2023-01-22T23:31:56.001Z,14.90
2023-01-22T23:34:24.049Z,14.70
2023-01-22T23:36:51.827Z,14.10
2023-01-22T23:39:21.531Z,15.80
2023-01-22T23:41:49.501Z,14.90
2023-01-22T23:44:17.726Z,15.10
2023-01-22T23:46:45.804Z,14.70
2023-01-22T23:49:13.700Z,14.20
2023-01-22T23:51:43.610Z,14.70
2023-01-22T23:54:11.554Z,13.10
2023-01-22T23:56:39.320Z,13.60
2023-01-22T23:59:07.135Z,11.30
